sensor_id;sensor_type;location;lat;lon;timestamp;P1;durP1;ratioP1;P2;durP2;ratioP2
61572;SDS011;47465;43.094;12.434;2023-08-08T00:02:22;18.75;;;17.85;;
61572;SDS011;47465;43.094;12.434;2023-08-08T00:04:48;19.98;;;18.98;;
61572;SDS011;47465;43.094;12.434;2023-08-08T00:07:15;20.05;;;18.95;;
61572;SDS011;47465;43.094;12.434;2023-08-08T00:09:42;20.73;;;19.83;;
61572;SDS011;47465;43.094;12.434;2023-08-08T00:12:08;22.05;;;21.05;;
61572;SDS011;47465;43.094;12.434;2023-08-08T00:14:34;21.70;;;20.70;;
61572;SDS011;47465;43.094;12.434;2023-08-08T00:17:00;20.85;;;19.85;;
61572;SDS011;47465;43.094;12.434;2023-08-08T00:19:26;20.52;;;19.55;;
61572;SDS011;47465;43.094;12.434;2023-08-08T00:21:51;18.95;;;18.05;;
61572;SDS011;47465;43.094;12.434;2023-08-08T00:24:17;20.08;;;19.17;;
61572;SDS011;47465;43.094;12.434;2023-08-08T00:26:44;19.67;;;18.67;;
61572;SDS011;47465;43.094;12.434;2023-08-08T00:29:10;19.42;;;18.33;;
61572;SDS011;47465;43.094;12.434;2023-08-08T00:31:36;20.90;;;19.67;;
61572;SDS011;47465;43.094;12.434;2023-08-08T00:34:02;21.50;;;20.05;;
61572;SDS011;47465;43.094;12.434;2023-08-08T00:36:28;21.38;;;20.45;;
61572;SDS011;47465;43.094;12.434;2023-08-08T00:38:54;21.25;;;20.13;;
61572;SDS011;47465;43.094;12.434;2023-08-08T00:41:20;22.15;;;21.17;;
61572;SDS011;47465;43.094;12.434;2023-08-08T00:43:48;19.25;;;18.35;;
61572;SDS011;47465;43.094;12.434;2023-08-08T00:46:15;20.23;;;19.30;;
61572;SDS011;47465;43.094;12.434;2023-08-08T00:48:43;19.52;;;18.60;;
61572;SDS011;47465;43.094;12.434;2023-08-08T00:51:08;21.15;;;20.25;;
61572;SDS011;47465;43.094;12.434;2023-08-08T00:53:34;22.83;;;21.63;;
61572;SDS011;47465;43.094;12.434;2023-08-08T00:56:00;21.88;;;20.73;;
61572;SDS011;47465;43.094;12.434;2023-08-08T00:58:26;25.00;;;23.60;;
61572;SDS011;47465;43.094;12.434;2023-08-08T01:00:55;25.92;;;24.70;;
61572;SDS011;47465;43.094;12.434;2023-08-08T01:03:25;26.40;;;25.10;;
61572;SDS011;47465;43.094;12.434;2023-08-08T01:05:51;27.55;;;26.35;;
61572;SDS011;47465;43.094;12.434;2023-08-08T01:08:27;26.42;;;25.23;;
61572;SDS011;47465;43.094;12.434;2023-08-08T01:11:00;27.00;;;25.63;;
61572;SDS011;47465;43.094;12.434;2023-08-08T01:13:28;27.55;;;26.35;;
61572;SDS011;47465;43.094;12.434;2023-08-08T01:15:59;23.40;;;22.30;;
61572;SDS011;47465;43.094;12.434;2023-08-08T01:18:25;21.13;;;20.13;;
61572;SDS011;47465;43.094;12.434;2023-08-08T01:20:52;18.60;;;17.70;;
61572;SDS011;47465;43.094;12.434;2023-08-08T01:23:24;18.15;;;17.25;;
61572;SDS011;47465;43.094;12.434;2023-08-08T01:25:59;513.55;;;262.88;;
61572;SDS011;47465;43.094;12.434;2023-08-08T01:28:26;677.80;;;343.93;;
61572;SDS011;47465;43.094;12.434;2023-08-08T01:30:52;1999.90;;;999.90;;
61572;SDS011;47465;43.094;12.434;2023-08-08T01:33:19;1999.90;;;999.90;;
61572;SDS011;47465;43.094;12.434;2023-08-08T01:35:46;1999.90;;;999.90;;
61572;SDS011;47465;43.094;12.434;2023-08-08T01:38:20;1999.90;;;999.90;;
61572;SDS011;47465;43.094;12.434;2023-08-08T01:40:52;1999.90;;;999.90;;
61572;SDS011;47465;43.094;12.434;2023-08-08T01:43:23;1999.90;;;999.90;;
61572;SDS011;47465;43.094;12.434;2023-08-08T01:45:50;1999.90;;;999.90;;
61572;SDS011;47465;43.094;12.434;2023-08-08T01:48:17;1999.90;;;999.90;;
61572;SDS011;47465;43.094;12.434;2023-08-08T01:50:43;1999.90;;;999.90;;
61572;SDS011;47465;43.094;12.434;2023-08-08T01:53:09;1999.90;;;999.90;;
61572;SDS011;47465;43.094;12.434;2023-08-08T01:55:35;1999.90;;;999.90;;
61572;SDS011;47465;43.094;12.434;2023-08-08T01:58:01;1999.90;;;999.90;;
61572;SDS011;47465;43.094;12.434;2023-08-08T02:00:29;1999.90;;;999.90;;
61572;SDS011;47465;43.094;12.434;2023-08-08T02:02:54;1999.90;;;999.90;;
61572;SDS011;47465;43.094;12.434;2023-08-08T02:05:20;1999.90;;;999.90;;
61572;SDS011;47465;43.094;12.434;2023-08-08T02:07:46;1999.90;;;999.90;;
61572;SDS011;47465;43.094;12.434;2023-08-08T02:10:13;1999.90;;;999.90;;
61572;SDS011;47465;43.094;12.434;2023-08-08T02:12:39;1999.90;;;999.90;;
61572;SDS011;47465;43.094;12.434;2023-08-08T02:15:05;1999.90;;;999.90;;
61572;SDS011;47465;43.094;12.434;2023-08-08T02:17:33;1999.90;;;999.90;;
61572;SDS011;47465;43.094;12.434;2023-08-08T02:19:59;1999.90;;;999.90;;
61572;SDS011;47465;43.094;12.434;2023-08-08T02:22:25;1999.90;;;999.90;;
61572;SDS011;47465;43.094;12.434;2023-08-08T02:24:50;1999.90;;;999.90;;
61572;SDS011;47465;43.094;12.434;2023-08-08T02:27:16;1999.90;;;999.90;;
61572;SDS011;47465;43.094;12.434;2023-08-08T02:29:42;1999.90;;;999.90;;
61572;SDS011;47465;43.094;12.434;2023-08-08T02:32:08;1999.90;;;999.90;;
61572;SDS011;47465;43.094;12.434;2023-08-08T02:34:35;1999.90;;;999.90;;
61572;SDS011;47465;43.094;12.434;2023-08-08T02:37:01;1999.90;;;999.90;;
61572;SDS011;47465;43.094;12.434;2023-08-08T02:39:27;1999.90;;;999.90;;
61572;SDS011;47465;43.094;12.434;2023-08-08T02:41:53;1999.90;;;999.90;;
61572;SDS011;47465;43.094;12.434;2023-08-08T02:44:18;1999.90;;;999.90;;
61572;SDS011;47465;43.094;12.434;2023-08-08T02:46:44;1999.90;;;999.90;;
61572;SDS011;47465;43.094;12.434;2023-08-08T02:49:10;1999.90;;;999.90;;
61572;SDS011;47465;43.094;12.434;2023-08-08T02:51:37;1999.90;;;999.90;;
61572;SDS011;47465;43.094;12.434;2023-08-08T02:54:03;1999.90;;;999.90;;
61572;SDS011;47465;43.094;12.434;2023-08-08T02:56:29;1999.90;;;999.90;;
61572;SDS011;47465;43.094;12.434;2023-08-08T02:58:55;1999.90;;;999.90;;
61572;SDS011;47465;43.094;12.434;2023-08-08T03:01:21;1999.90;;;999.90;;
61572;SDS011;47465;43.094;12.434;2023-08-08T03:03:47;1999.90;;;999.90;;
61572;SDS011;47465;43.094;12.434;2023-08-08T03:06:13;1999.90;;;999.90;;
61572;SDS011;47465;43.094;12.434;2023-08-08T03:08:40;1999.90;;;999.90;;
61572;SDS011;47465;43.094;12.434;2023-08-08T03:11:06;1999.90;;;999.90;;
61572;SDS011;47465;43.094;12.434;2023-08-08T03:13:32;1999.90;;;999.90;;
61572;SDS011;47465;43.094;12.434;2023-08-08T03:15:57;1999.90;;;999.90;;
61572;SDS011;47465;43.094;12.434;2023-08-08T03:18:23;1999.90;;;999.90;;
61572;SDS011;47465;43.094;12.434;2023-08-08T03:20:51;1999.90;;;999.90;;
61572;SDS011;47465;43.094;12.434;2023-08-08T03:23:17;1999.90;;;999.90;;
61572;SDS011;47465;43.094;12.434;2023-08-08T03:25:45;1999.90;;;999.90;;
61572;SDS011;47465;43.094;12.434;2023-08-08T03:28:11;1999.90;;;999.90;;
61572;SDS011;47465;43.094;12.434;2023-08-08T03:30:37;1999.90;;;999.90;;
61572;SDS011;47465;43.094;12.434;2023-08-08T03:33:03;1999.90;;;999.90;;
61572;SDS011;47465;43.094;12.434;2023-08-08T03:35:29;1999.90;;;999.90;;
61572;SDS011;47465;43.094;12.434;2023-08-08T03:37:55;1999.90;;;999.90;;
61572;SDS011;47465;43.094;12.434;2023-08-08T03:40:21;1999.90;;;999.90;;
61572;SDS011;47465;43.094;12.434;2023-08-08T03:42:48;1999.90;;;999.90;;
61572;SDS011;47465;43.094;12.434;2023-08-08T03:45:14;1999.90;;;999.90;;
61572;SDS011;47465;43.094;12.434;2023-08-08T03:47:40;1999.90;;;999.90;;
61572;SDS011;47465;43.094;12.434;2023-08-08T03:50:07;1999.90;;;999.90;;
61572;SDS011;47465;43.094;12.434;2023-08-08T03:52:34;1999.90;;;999.90;;
61572;SDS011;47465;43.094;12.434;2023-08-08T03:55:02;1999.90;;;999.90;;
61572;SDS011;47465;43.094;12.434;2023-08-08T03:57:28;1507.15;;;756.85;;
61572;SDS011;47465;43.094;12.434;2023-08-08T03:59:56;1999.90;;;999.90;;
61572;SDS011;47465;43.094;12.434;2023-08-08T04:02:21;1999.90;;;999.90;;
61572;SDS011;47465;43.094;12.434;2023-08-08T04:04:47;1509.63;;;759.20;;
61572;SDS011;47465;43.094;12.434;2023-08-08T04:07:13;1508.70;;;758.35;;
61572;SDS011;47465;43.094;12.434;2023-08-08T04:09:39;1999.90;;;999.90;;
61572;SDS011;47465;43.094;12.434;2023-08-08T04:12:05;1999.90;;;999.90;;
61572;SDS011;47465;43.094;12.434;2023-08-08T04:14:31;46.85;;;44.78;;
61572;SDS011;47465;43.094;12.434;2023-08-08T04:16:58;43.20;;;41.42;;
61572;SDS011;47465;43.094;12.434;2023-08-08T04:19:24;47.92;;;45.97;;
61572;SDS011;47465;43.094;12.434;2023-08-08T04:21:50;47.30;;;45.25;;
61572;SDS011;47465;43.094;12.434;2023-08-08T04:24:16;49.10;;;47.05;;
61572;SDS011;47465;43.094;12.434;2023-08-08T04:26:42;40.22;;;38.50;;
61572;SDS011;47465;43.094;12.434;2023-08-08T04:29:08;35.65;;;34.20;;
61572;SDS011;47465;43.094;12.434;2023-08-08T04:31:34;36.90;;;35.30;;
61572;SDS011;47465;43.094;12.434;2023-08-08T04:34:01;31.52;;;30.02;;
61572;SDS011;47465;43.094;12.434;2023-08-08T04:36:28;30.60;;;29.20;;
61572;SDS011;47465;43.094;12.434;2023-08-08T04:38:54;28.58;;;27.27;;
61572;SDS011;47465;43.094;12.434;2023-08-08T04:41:20;28.73;;;27.23;;
61572;SDS011;47465;43.094;12.434;2023-08-08T04:43:46;27.75;;;26.25;;
61572;SDS011;47465;43.094;12.434;2023-08-08T04:46:11;27.58;;;26.33;;
61572;SDS011;47465;43.094;12.434;2023-08-08T04:48:37;28.25;;;26.85;;
61572;SDS011;47465;43.094;12.434;2023-08-08T04:51:05;29.42;;;28.08;;
61572;SDS011;47465;43.094;12.434;2023-08-08T04:53:31;32.20;;;30.65;;
61572;SDS011;47465;43.094;12.434;2023-08-08T04:55:57;34.83;;;33.22;;
61572;SDS011;47465;43.094;12.434;2023-08-08T04:58:23;38.75;;;36.90;;
61572;SDS011;47465;43.094;12.434;2023-08-08T05:00:49;36.88;;;35.00;;
61572;SDS011;47465;43.094;12.434;2023-08-08T05:03:16;38.50;;;36.45;;
61572;SDS011;47465;43.094;12.434;2023-08-08T05:05:42;39.22;;;37.25;;
61572;SDS011;47465;43.094;12.434;2023-08-08T05:08:11;40.10;;;38.25;;
61572;SDS011;47465;43.094;12.434;2023-08-08T05:10:38;1999.90;;;999.90;;
61572;SDS011;47465;43.094;12.434;2023-08-08T05:13:04;1999.90;;;999.90;;
61572;SDS011;47465;43.094;12.434;2023-08-08T05:15:30;1999.90;;;999.90;;
61572;SDS011;47465;43.094;12.434;2023-08-08T05:17:55;1999.90;;;999.90;;
61572;SDS011;47465;43.094;12.434;2023-08-08T05:20:21;29.38;;;27.98;;
61572;SDS011;47465;43.094;12.434;2023-08-08T05:22:47;24.67;;;23.38;;
61572;SDS011;47465;43.094;12.434;2023-08-08T05:25:15;29.83;;;28.50;;
61572;SDS011;47465;43.094;12.434;2023-08-08T05:27:41;1999.90;;;999.90;;
61572;SDS011;47465;43.094;12.434;2023-08-08T05:30:07;1999.90;;;999.90;;
61572;SDS011;47465;43.094;12.434;2023-08-08T05:32:33;1999.90;;;999.90;;
61572;SDS011;47465;43.094;12.434;2023-08-08T05:34:59;1999.90;;;999.90;;
61572;SDS011;47465;43.094;12.434;2023-08-08T05:37:26;1999.90;;;999.90;;
61572;SDS011;47465;43.094;12.434;2023-08-08T05:39:52;1999.90;;;999.90;;
61572;SDS011;47465;43.094;12.434;2023-08-08T05:42:20;1999.90;;;999.90;;
61572;SDS011;47465;43.094;12.434;2023-08-08T05:44:46;1999.90;;;999.90;;
61572;SDS011;47465;43.094;12.434;2023-08-08T05:47:11;1999.90;;;999.90;;
61572;SDS011;47465;43.094;12.434;2023-08-08T05:49:38;1999.90;;;999.90;;
61572;SDS011;47465;43.094;12.434;2023-08-08T05:52:04;1999.90;;;999.90;;
61572;SDS011;47465;43.094;12.434;2023-08-08T05:54:31;1999.90;;;999.90;;
61572;SDS011;47465;43.094;12.434;2023-08-08T05:56:56;1999.90;;;999.90;;
61572;SDS011;47465;43.094;12.434;2023-08-08T05:59:24;1999.90;;;999.90;;
61572;SDS011;47465;43.094;12.434;2023-08-08T06:01:49;1999.90;;;999.90;;
61572;SDS011;47465;43.094;12.434;2023-08-08T06:04:15;1999.90;;;999.90;;
61572;SDS011;47465;43.094;12.434;2023-08-08T06:06:41;1999.90;;;999.90;;
61572;SDS011;47465;43.094;12.434;2023-08-08T06:09:07;1999.90;;;999.90;;
61572;SDS011;47465;43.094;12.434;2023-08-08T06:11:33;1999.90;;;999.90;;
61572;SDS011;47465;43.094;12.434;2023-08-08T06:13:59;1999.90;;;999.90;;
61572;SDS011;47465;43.094;12.434;2023-08-08T06:16:27;1999.90;;;999.90;;
61572;SDS011;47465;43.094;12.434;2023-08-08T06:18:52;1999.90;;;999.90;;
61572;SDS011;47465;43.094;12.434;2023-08-08T06:21:18;1999.90;;;999.90;;
61572;SDS011;47465;43.094;12.434;2023-08-08T06:23:44;1999.90;;;999.90;;
61572;SDS011;47465;43.094;12.434;2023-08-08T06:26:11;1999.90;;;999.90;;
61572;SDS011;47465;43.094;12.434;2023-08-08T06:28:37;1999.90;;;999.90;;
61572;SDS011;47465;43.094;12.434;2023-08-08T06:31:03;1999.90;;;999.90;;
61572;SDS011;47465;43.094;12.434;2023-08-08T06:33:30;1999.90;;;999.90;;
61572;SDS011;47465;43.094;12.434;2023-08-08T06:35:56;1999.90;;;999.90;;
61572;SDS011;47465;43.094;12.434;2023-08-08T06:38:22;1999.90;;;999.90;;
61572;SDS011;47465;43.094;12.434;2023-08-08T06:40:48;1999.90;;;999.90;;
61572;SDS011;47465;43.094;12.434;2023-08-08T06:43:14;1999.90;;;999.90;;
61572;SDS011;47465;43.094;12.434;2023-08-08T06:45:40;1999.90;;;999.90;;
61572;SDS011;47465;43.094;12.434;2023-08-08T06:48:06;1999.90;;;999.90;;
61572;SDS011;47465;43.094;12.434;2023-08-08T06:50:33;1999.90;;;999.90;;
61572;SDS011;47465;43.094;12.434;2023-08-08T06:52:59;1999.90;;;999.90;;
61572;SDS011;47465;43.094;12.434;2023-08-08T06:55:25;1999.90;;;999.90;;
61572;SDS011;47465;43.094;12.434;2023-08-08T06:57:51;1999.90;;;999.90;;
61572;SDS011;47465;43.094;12.434;2023-08-08T07:00:17;1999.90;;;999.90;;
61572;SDS011;47465;43.094;12.434;2023-08-08T07:02:43;1999.90;;;999.90;;
61572;SDS011;47465;43.094;12.434;2023-08-08T07:05:09;1999.90;;;999.90;;
61572;SDS011;47465;43.094;12.434;2023-08-08T07:07:37;1999.90;;;999.90;;
61572;SDS011;47465;43.094;12.434;2023-08-08T07:10:03;1999.90;;;999.90;;
61572;SDS011;47465;43.094;12.434;2023-08-08T07:12:31;1999.90;;;999.90;;
61572;SDS011;47465;43.094;12.434;2023-08-08T07:14:57;1999.90;;;999.90;;
61572;SDS011;47465;43.094;12.434;2023-08-08T07:17:23;1999.90;;;999.90;;
61572;SDS011;47465;43.094;12.434;2023-08-08T07:19:49;1999.90;;;999.90;;
61572;SDS011;47465;43.094;12.434;2023-08-08T07:22:15;1999.90;;;999.90;;
61572;SDS011;47465;43.094;12.434;2023-08-08T07:24:43;1999.90;;;999.90;;
61572;SDS011;47465;43.094;12.434;2023-08-08T07:27:09;1999.90;;;999.90;;
61572;SDS011;47465;43.094;12.434;2023-08-08T07:29:35;1999.90;;;999.90;;
61572;SDS011;47465;43.094;12.434;2023-08-08T07:32:02;1999.90;;;999.90;;
61572;SDS011;47465;43.094;12.434;2023-08-08T07:34:29;1999.90;;;999.90;;
61572;SDS011;47465;43.094;12.434;2023-08-08T07:36:55;1999.90;;;999.90;;
61572;SDS011;47465;43.094;12.434;2023-08-08T07:39:21;1999.90;;;999.90;;
61572;SDS011;47465;43.094;12.434;2023-08-08T07:41:48;1999.90;;;999.90;;
61572;SDS011;47465;43.094;12.434;2023-08-08T07:44:15;1999.90;;;999.90;;
61572;SDS011;47465;43.094;12.434;2023-08-08T07:46:41;1999.90;;;999.90;;
61572;SDS011;47465;43.094;12.434;2023-08-08T07:49:07;1999.90;;;999.90;;
61572;SDS011;47465;43.094;12.434;2023-08-08T07:51:34;1999.90;;;999.90;;
61572;SDS011;47465;43.094;12.434;2023-08-08T07:54:00;1999.90;;;999.90;;
61572;SDS011;47465;43.094;12.434;2023-08-08T07:56:26;1999.90;;;999.90;;
61572;SDS011;47465;43.094;12.434;2023-08-08T07:58:53;1999.90;;;999.90;;
61572;SDS011;47465;43.094;12.434;2023-08-08T08:01:19;1999.90;;;999.90;;
61572;SDS011;47465;43.094;12.434;2023-08-08T08:03:45;1999.90;;;999.90;;
61572;SDS011;47465;43.094;12.434;2023-08-08T08:06:11;1999.90;;;999.90;;
61572;SDS011;47465;43.094;12.434;2023-08-08T08:08:37;1999.90;;;999.90;;
61572;SDS011;47465;43.094;12.434;2023-08-08T08:11:03;20.40;;;19.40;;
61572;SDS011;47465;43.094;12.434;2023-08-08T08:13:29;20.58;;;19.35;;
61572;SDS011;47465;43.094;12.434;2023-08-08T08:15:56;18.90;;;17.90;;
61572;SDS011;47465;43.094;12.434;2023-08-08T08:18:23;19.25;;;18.08;;
61572;SDS011;47465;43.094;12.434;2023-08-08T08:20:49;20.13;;;19.02;;
61572;SDS011;47465;43.094;12.434;2023-08-08T08:23:15;19.55;;;18.52;;
61572;SDS011;47465;43.094;12.434;2023-08-08T08:25:41;20.13;;;18.92;;
61572;SDS011;47465;43.094;12.434;2023-08-08T08:28:06;20.27;;;19.25;;
61572;SDS011;47465;43.094;12.434;2023-08-08T08:30:33;21.52;;;20.52;;
61572;SDS011;47465;43.094;12.434;2023-08-08T08:33:00;22.92;;;21.73;;
61572;SDS011;47465;43.094;12.434;2023-08-08T08:35:26;26.15;;;24.95;;
61572;SDS011;47465;43.094;12.434;2023-08-08T08:37:52;1999.90;;;999.90;;
61572;SDS011;47465;43.094;12.434;2023-08-08T08:40:18;1999.90;;;999.90;;
61572;SDS011;47465;43.094;12.434;2023-08-08T08:42:44;1999.90;;;999.90;;
61572;SDS011;47465;43.094;12.434;2023-08-08T08:45:12;1999.90;;;999.90;;
61572;SDS011;47465;43.094;12.434;2023-08-08T08:47:40;1999.90;;;999.90;;
61572;SDS011;47465;43.094;12.434;2023-08-08T08:50:10;37.20;;;35.70;;
61572;SDS011;47465;43.094;12.434;2023-08-08T08:52:36;40.42;;;38.47;;
61572;SDS011;47465;43.094;12.434;2023-08-08T08:55:02;36.60;;;34.90;;
61572;SDS011;47465;43.094;12.434;2023-08-08T08:57:29;37.28;;;35.50;;
61572;SDS011;47465;43.094;12.434;2023-08-08T08:59:55;34.30;;;32.80;;
61572;SDS011;47465;43.094;12.434;2023-08-08T09:02:22;35.80;;;34.20;;
61572;SDS011;47465;43.094;12.434;2023-08-08T09:04:49;33.50;;;32.03;;
61572;SDS011;47465;43.094;12.434;2023-08-08T09:07:17;30.38;;;29.08;;
61572;SDS011;47465;43.094;12.434;2023-08-08T09:09:45;26.65;;;25.30;;
61572;SDS011;47465;43.094;12.434;2023-08-08T09:12:11;26.75;;;25.55;;
61572;SDS011;47465;43.094;12.434;2023-08-08T09:14:39;24.60;;;23.42;;
61572;SDS011;47465;43.094;12.434;2023-08-08T09:17:09;22.35;;;21.35;;
61572;SDS011;47465;43.094;12.434;2023-08-08T09:19:37;18.98;;;18.08;;
61572;SDS011;47465;43.094;12.434;2023-08-08T09:22:02;19.63;;;18.52;;
61572;SDS011;47465;43.094;12.434;2023-08-08T09:24:30;17.30;;;16.50;;
61572;SDS011;47465;43.094;12.434;2023-08-08T09:26:56;19.33;;;18.08;;
61572;SDS011;47465;43.094;12.434;2023-08-08T09:29:22;17.45;;;16.50;;
61572;SDS011;47465;43.094;12.434;2023-08-08T09:31:48;17.90;;;17.00;;
61572;SDS011;47465;43.094;12.434;2023-08-08T09:34:14;18.52;;;17.63;;
61572;SDS011;47465;43.094;12.434;2023-08-08T09:36:41;18.40;;;17.17;;
61572;SDS011;47465;43.094;12.434;2023-08-08T09:39:06;17.70;;;16.90;;
61572;SDS011;47465;43.094;12.434;2023-08-08T09:41:34;19.48;;;18.58;;
61572;SDS011;47465;43.094;12.434;2023-08-08T09:44:00;1999.90;;;999.90;;
61572;SDS011;47465;43.094;12.434;2023-08-08T09:46:28;1999.90;;;999.90;;
61572;SDS011;47465;43.094;12.434;2023-08-08T09:48:57;1999.90;;;999.90;;
61572;SDS011;47465;43.094;12.434;2023-08-08T09:51:25;1999.90;;;999.90;;
61572;SDS011;47465;43.094;12.434;2023-08-08T09:56:18;1999.90;;;999.90;;
61572;SDS011;47465;43.094;12.434;2023-08-08T09:58:46;1999.90;;;999.90;;
61572;SDS011;47465;43.094;12.434;2023-08-08T10:01:12;1999.90;;;999.90;;
61572;SDS011;47465;43.094;12.434;2023-08-08T10:03:39;1999.90;;;999.90;;
61572;SDS011;47465;43.094;12.434;2023-08-08T10:08:34;1999.90;;;999.90;;
61572;SDS011;47465;43.094;12.434;2023-08-08T10:11:00;1999.90;;;999.90;;
61572;SDS011;47465;43.094;12.434;2023-08-08T10:13:27;1999.90;;;999.90;;
61572;SDS011;47465;43.094;12.434;2023-08-08T10:15:55;1999.90;;;999.90;;
61572;SDS011;47465;43.094;12.434;2023-08-08T10:18:21;1999.90;;;999.90;;
61572;SDS011;47465;43.094;12.434;2023-08-08T10:20:48;1999.90;;;999.90;;
61572;SDS011;47465;43.094;12.434;2023-08-08T10:23:15;1999.90;;;999.90;;
61572;SDS011;47465;43.094;12.434;2023-08-08T10:25:43;1999.90;;;999.90;;
61572;SDS011;47465;43.094;12.434;2023-08-08T10:28:10;1999.90;;;999.90;;
61572;SDS011;47465;43.094;12.434;2023-08-08T10:30:42;1999.90;;;999.90;;
61572;SDS011;47465;43.094;12.434;2023-08-08T10:33:16;1999.90;;;999.90;;
61572;SDS011;47465;43.094;12.434;2023-08-08T10:35:50;1999.90;;;999.90;;
61572;SDS011;47465;43.094;12.434;2023-08-08T10:38:20;1999.90;;;999.90;;
61572;SDS011;47465;43.094;12.434;2023-08-08T10:40:47;1999.90;;;999.90;;
61572;SDS011;47465;43.094;12.434;2023-08-08T10:43:13;1999.90;;;999.90;;
61572;SDS011;47465;43.094;12.434;2023-08-08T10:45:40;1999.90;;;999.90;;
61572;SDS011;47465;43.094;12.434;2023-08-08T10:48:08;1999.90;;;999.90;;
61572;SDS011;47465;43.094;12.434;2023-08-08T10:50:38;1999.90;;;999.90;;
61572;SDS011;47465;43.094;12.434;2023-08-08T10:53:08;1999.90;;;999.90;;
61572;SDS011;47465;43.094;12.434;2023-08-08T10:55:35;1999.90;;;999.90;;
61572;SDS011;47465;43.094;12.434;2023-08-08T10:58:04;1999.90;;;999.90;;
61572;SDS011;47465;43.094;12.434;2023-08-08T11:02:57;1999.90;;;999.90;;
61572;SDS011;47465;43.094;12.434;2023-08-08T11:05:24;1999.90;;;999.90;;
61572;SDS011;47465;43.094;12.434;2023-08-08T11:07:54;1999.90;;;999.90;;
61572;SDS011;47465;43.094;12.434;2023-08-08T11:10:20;1999.90;;;999.90;;
61572;SDS011;47465;43.094;12.434;2023-08-08T11:12:54;1999.90;;;999.90;;
61572;SDS011;47465;43.094;12.434;2023-08-08T11:15:21;1999.90;;;999.90;;
61572;SDS011;47465;43.094;12.434;2023-08-08T11:17:48;1999.90;;;999.90;;
61572;SDS011;47465;43.094;12.434;2023-08-08T11:20:14;1999.90;;;999.90;;
61572;SDS011;47465;43.094;12.434;2023-08-08T11:22:40;1999.90;;;999.90;;
61572;SDS011;47465;43.094;12.434;2023-08-08T11:25:08;1999.90;;;999.90;;
61572;SDS011;47465;43.094;12.434;2023-08-08T11:27:34;1999.90;;;999.90;;
61572;SDS011;47465;43.094;12.434;2023-08-08T11:30:00;1999.90;;;999.90;;
61572;SDS011;47465;43.094;12.434;2023-08-08T11:32:25;1999.90;;;999.90;;
61572;SDS011;47465;43.094;12.434;2023-08-08T11:34:53;1999.90;;;999.90;;
61572;SDS011;47465;43.094;12.434;2023-08-08T11:37:19;1999.90;;;999.90;;
61572;SDS011;47465;43.094;12.434;2023-08-08T11:39:46;1999.90;;;999.90;;
61572;SDS011;47465;43.094;12.434;2023-08-08T11:42:13;1999.90;;;999.90;;
61572;SDS011;47465;43.094;12.434;2023-08-08T11:44:40;1999.90;;;999.90;;
61572;SDS011;47465;43.094;12.434;2023-08-08T11:47:07;1999.90;;;999.90;;
61572;SDS011;47465;43.094;12.434;2023-08-08T11:49:38;1999.90;;;999.90;;
61572;SDS011;47465;43.094;12.434;2023-08-08T11:52:06;1999.90;;;999.90;;
61572;SDS011;47465;43.094;12.434;2023-08-08T11:54:32;1999.90;;;999.90;;
61572;SDS011;47465;43.094;12.434;2023-08-08T11:56:58;1999.90;;;999.90;;
61572;SDS011;47465;43.094;12.434;2023-08-08T11:59:27;1999.90;;;999.90;;
61572;SDS011;47465;43.094;12.434;2023-08-08T12:01:52;1999.90;;;999.90;;
61572;SDS011;47465;43.094;12.434;2023-08-08T12:04:19;1999.90;;;999.90;;
61572;SDS011;47465;43.094;12.434;2023-08-08T12:06:45;1999.90;;;999.90;;
61572;SDS011;47465;43.094;12.434;2023-08-08T12:09:11;1999.90;;;999.90;;
61572;SDS011;47465;43.094;12.434;2023-08-08T12:11:38;1999.90;;;999.90;;
61572;SDS011;47465;43.094;12.434;2023-08-08T12:14:07;1999.90;;;999.90;;
61572;SDS011;47465;43.094;12.434;2023-08-08T12:16:37;1999.90;;;999.90;;
61572;SDS011;47465;43.094;12.434;2023-08-08T12:19:06;1999.90;;;999.90;;
61572;SDS011;47465;43.094;12.434;2023-08-08T12:21:34;1999.90;;;999.90;;
61572;SDS011;47465;43.094;12.434;2023-08-08T12:24:00;1999.90;;;999.90;;
61572;SDS011;47465;43.094;12.434;2023-08-08T12:26:26;1999.90;;;999.90;;
61572;SDS011;47465;43.094;12.434;2023-08-08T12:28:53;1999.90;;;999.90;;
61572;SDS011;47465;43.094;12.434;2023-08-08T12:31:19;1999.90;;;999.90;;
61572;SDS011;47465;43.094;12.434;2023-08-08T12:33:47;1999.90;;;999.90;;
61572;SDS011;47465;43.094;12.434;2023-08-08T12:36:13;1999.90;;;999.90;;
61572;SDS011;47465;43.094;12.434;2023-08-08T12:38:39;1999.90;;;999.90;;
61572;SDS011;47465;43.094;12.434;2023-08-08T12:41:05;1999.90;;;999.90;;
61572;SDS011;47465;43.094;12.434;2023-08-08T12:43:31;1999.90;;;999.90;;
61572;SDS011;47465;43.094;12.434;2023-08-08T12:45:59;1999.90;;;999.90;;
61572;SDS011;47465;43.094;12.434;2023-08-08T12:48:25;1999.90;;;999.90;;
61572;SDS011;47465;43.094;12.434;2023-08-08T12:50:52;1999.90;;;999.90;;
61572;SDS011;47465;43.094;12.434;2023-08-08T12:53:18;1999.90;;;999.90;;
61572;SDS011;47465;43.094;12.434;2023-08-08T12:55:44;1999.90;;;999.90;;
61572;SDS011;47465;43.094;12.434;2023-08-08T12:58:10;1999.90;;;999.90;;
61572;SDS011;47465;43.094;12.434;2023-08-08T13:00:36;1999.90;;;999.90;;
61572;SDS011;47465;43.094;12.434;2023-08-08T13:03:02;1999.90;;;999.90;;
61572;SDS011;47465;43.094;12.434;2023-08-08T13:05:28;1999.90;;;999.90;;
61572;SDS011;47465;43.094;12.434;2023-08-08T13:07:56;1999.90;;;999.90;;
61572;SDS011;47465;43.094;12.434;2023-08-08T13:10:22;1999.90;;;999.90;;
61572;SDS011;47465;43.094;12.434;2023-08-08T13:12:47;1999.90;;;999.90;;
61572;SDS011;47465;43.094;12.434;2023-08-08T13:15:14;1999.90;;;999.90;;
61572;SDS011;47465;43.094;12.434;2023-08-08T13:17:40;1999.90;;;999.90;;
61572;SDS011;47465;43.094;12.434;2023-08-08T13:20:06;1999.90;;;999.90;;
61572;SDS011;47465;43.094;12.434;2023-08-08T13:22:32;1999.90;;;999.90;;
61572;SDS011;47465;43.094;12.434;2023-08-08T13:25:00;1999.90;;;999.90;;
61572;SDS011;47465;43.094;12.434;2023-08-08T13:27:26;1999.90;;;999.90;;
61572;SDS011;47465;43.094;12.434;2023-08-08T13:29:51;1999.90;;;999.90;;
61572;SDS011;47465;43.094;12.434;2023-08-08T13:32:17;1999.90;;;999.90;;
61572;SDS011;47465;43.094;12.434;2023-08-08T13:34:43;1999.90;;;999.90;;
61572;SDS011;47465;43.094;12.434;2023-08-08T13:37:09;1999.90;;;999.90;;
61572;SDS011;47465;43.094;12.434;2023-08-08T13:39:36;1999.90;;;999.90;;
61572;SDS011;47465;43.094;12.434;2023-08-08T13:42:03;1999.90;;;999.90;;
61572;SDS011;47465;43.094;12.434;2023-08-08T13:44:29;1999.90;;;999.90;;
61572;SDS011;47465;43.094;12.434;2023-08-08T13:46:56;1999.90;;;999.90;;
61572;SDS011;47465;43.094;12.434;2023-08-08T13:49:23;1999.90;;;999.90;;